Weather at McArthur River Mine Airport

Public forecast

Using degrees Celsius for public forecast. Weather courtesy of forecast.io.

Closest aviation weather report (METAR) to McArthur River Mine Airport

Closest report is Tindal Airport, 243.5 nm (450.9 km) WNW.

2024/04/22 23:00 (retrieved 38 minutes ago)

YPTN 222300Z AUTO 14006KT 9999 // SCT075 23/16 Q1013 RF000/0000

Closest aviation forecast (TAF) to McArthur River Mine Airport

Closest forecast is Tindal Airport, 243.5 nm (450.9 km) WNW.

2024/04/22 22:54 (retrieved 44 minutes ago)

TAF YPTN 222141Z 2222/2318 13007KT CAVOK FM230000 11012KT CAVOK FM231200 09008KT 9999 SCT040